Time;durP1;ratioP1;P1;durP2;ratioP2;P2;SDS_P1;SDS_P2;PMS_P1;PMS_P2;Temp;Humidity;BMP_temperature;BMP_pressure;BME280_temperature;BME280_humidity;BME280_pressure;Samples;Min_cycle;Max_cycle;Signal;HPM_P1;HPM_P2
2023/12/12 00:02:01;;;;;;;10.77;7.07;;;;;;;4.99;100.00;62512.00;5075963;28;20201;-78
2023/12/12 00:04:28;;;;;;;10.82;7.22;;;;;;;5.10;100.00;62517.78;5064927;28;20225;-77
2023/12/12 00:06:56;;;;;;;9.40;7.18;;;;;;;5.13;100.00;62523.91;5082188;28;20200;-77
2023/12/12 00:09:23;;;;;;;13.27;8.13;;;;;;;5.21;100.00;62532.13;5086605;28;20242;-79
2023/12/12 00:11:51;;;;;;;10.13;7.53;;;;;;;5.28;100.00;62541.38;5081133;28;20239;-78
2023/12/12 00:14:18;;;;;;;14.15;7.82;;;;;;;5.23;100.00;62529.16;5084768;28;20571;-77
2023/12/12 00:16:45;;;;;;;14.45;8.18;;;;;;;5.25;100.00;62536.25;5088860;28;20200;-77
2023/12/12 00:19:12;;;;;;;14.90;8.15;;;;;;;5.27;100.00;62535.28;5086194;28;20227;-77
2023/12/12 00:21:39;;;;;;;10.80;7.68;;;;;;;5.26;100.00;62534.25;5083166;28;20213;-78
2023/12/12 00:24:08;;;;;;;11.13;8.02;;;;;;;5.24;100.00;62537.25;5086942;28;20251;-77
2023/12/12 00:26:35;;;;;;;12.27;8.80;;;;;;;5.18;100.00;62531.56;5066449;28;20431;-77
2023/12/12 00:29:02;;;;;;;10.75;8.07;;;;;;;5.27;100.00;62540.31;5065466;28;20229;-78
2023/12/12 00:31:28;;;;;;;17.70;8.20;;;;;;;5.35;100.00;62548.59;5066111;28;20208;-77
2023/12/12 00:33:56;;;;;;;14.35;8.50;;;;;;;5.39;100.00;62552.69;5068231;28;20217;-77
2023/12/12 00:36:23;;;;;;;12.65;8.65;;;;;;;5.19;100.00;62535.13;5070668;28;20197;-77
2023/12/12 00:38:49;;;;;;;12.55;8.77;;;;;;;5.02;100.00;62510.03;5083795;28;20219;-77
2023/12/12 00:41:18;;;;;;;13.27;8.55;;;;;;;5.13;100.00;62528.44;5070333;28;20200;-78
2023/12/12 00:43:45;;;;;;;16.42;10.02;;;;;;;5.13;100.00;62526.44;5083180;28;20284;-78
2023/12/12 00:46:15;;;;;;;16.80;9.23;;;;;;;5.18;100.00;62529.06;5073396;28;20201;-80
2023/12/12 00:48:46;;;;;;;12.63;9.23;;;;;;;5.20;100.00;62533.63;5074705;28;20220;-78
2023/12/12 00:51:19;;;;;;;13.00;8.40;;;;;;;5.11;100.00;62526.88;5072785;28;20228;-78
2023/12/12 00:53:48;;;;;;;12.00;9.27;;;;;;;5.12;100.00;62524.88;5068080;28;20221;-78
2023/12/12 00:56:15;;;;;;;15.65;9.48;;;;;;;5.05;100.00;62517.69;5075666;28;20192;-78
2023/12/12 00:58:43;;;;;;;14.00;10.00;;;;;;;5.11;100.00;62523.88;5069864;28;20225;-77
2023/12/12 01:01:11;;;;;;;16.23;10.00;;;;;;;4.94;100.00;62506.88;5076610;28;20200;-77
2023/12/12 01:03:39;;;;;;;15.63;8.85;;;;;;;4.93;100.00;62505.31;5066630;28;20233;-76
2023/12/12 01:06:06;;;;;;;18.23;9.32;;;;;;;4.95;100.00;62505.38;5087167;28;20553;-77
2023/12/12 01:08:33;;;;;;;14.02;8.73;;;;;;;5.02;100.00;62515.09;5066391;28;20217;-76
2023/12/12 01:11:01;;;;;;;14.27;9.00;;;;;;;5.05;100.00;62513.16;5064267;28;20309;-76
2023/12/12 01:13:28;;;;;;;11.52;9.15;;;;;;;4.88;100.00;62495.13;5064458;28;20278;-76
2023/12/12 01:15:56;;;;;;;14.98;9.60;;;;;;;4.72;100.00;62481.69;5067541;28;20197;-78
2023/12/12 01:18:23;;;;;;;13.65;9.57;;;;;;;4.84;100.00;62499.09;5074400;28;20192;-77
2023/12/12 01:20:50;;;;;;;11.50;8.93;;;;;;;4.86;100.00;62496.09;5074095;28;20201;-77
2023/12/12 01:23:17;;;;;;;19.20;9.82;;;;;;;4.89;100.00;62501.72;5066042;28;20239;-77
2023/12/12 01:25:44;;;;;;;15.63;9.80;;;;;;;4.97;100.00;62512.47;5064245;28;20197;-77
2023/12/12 01:28:11;;;;;;;16.08;8.75;;;;;;;5.05;100.00;62515.16;5064207;28;20513;-78
2023/12/12 01:30:37;;;;;;;11.25;8.55;;;;;;;5.00;100.00;62508.00;5070888;28;20269;-78
2023/12/12 01:33:06;;;;;;;12.20;8.35;;;;;;;5.01;100.00;62513.56;5082701;28;20262;-77
2023/12/12 01:35:32;;;;;;;12.82;7.97;;;;;;;5.16;100.00;62529.50;5070259;28;20241;-77
2023/12/12 01:37:59;;;;;;;12.00;7.65;;;;;;;5.17;100.00;62525.00;5065317;28;20396;-77
2023/12/12 01:40:26;;;;;;;11.85;7.32;;;;;;;5.17;100.00;62527.50;5080887;28;20220;-78
2023/12/12 01:43:07;;;;;;;13.00;7.10;;;;;;;5.26;100.00;62539.31;5076852;28;20388;-78
2023/12/12 01:45:34;;;;;;;10.00;7.05;;;;;;;5.33;100.00;62544.50;5065156;28;20280;-77
2023/12/12 01:48:01;;;;;;;11.30;6.95;;;;;;;5.40;100.00;62554.22;5074294;28;20206;-76
2023/12/12 01:50:29;;;;;;;10.75;6.60;;;;;;;5.49;100.00;62560.47;5065624;28;20223;-77
2023/12/12 01:52:56;;;;;;;9.68;6.35;;;;;;;5.53;100.00;62567.63;5080281;28;20228;-77
2023/12/12 01:55:23;;;;;;;9.75;7.13;;;;;;;5.56;100.00;62575.25;5066506;28;20229;-77
2023/12/12 01:57:50;;;;;;;15.77;7.78;;;;;;;5.34;100.00;62545.53;5074725;28;20209;-77
2023/12/12 02:00:17;;;;;;;13.75;6.85;;;;;;;5.31;100.00;62542.44;5064338;28;20245;-77
2023/12/12 02:02:44;;;;;;;11.82;7.30;;;;;;;5.37;100.00;62551.16;5075965;28;20236;-77
2023/12/12 02:05:12;;;;;;;7.32;5.88;;;;;;;5.31;100.00;62546.97;5081370;28;20235;-77
2023/12/12 02:07:40;;;;;;;14.23;8.48;;;;;;;5.14;100.00;62530.00;5082976;28;20219;-76
2023/12/12 02:10:07;;;;;;;17.88;11.02;;;;;;;5.01;100.00;62514.06;5065703;28;20213;-77
2023/12/12 02:12:34;;;;;;;14.27;9.38;;;;;;;5.10;100.00;62522.81;5083164;28;20411;-77
2023/12/12 02:15:02;;;;;;;21.02;9.95;;;;;;;5.12;100.00;62522.88;5064985;28;20221;-77
2023/12/12 02:17:28;;;;;;;18.17;11.13;;;;;;;5.13;100.00;62521.38;5066203;28;20240;-77
2023/12/12 02:19:55;;;;;;;25.92;12.73;;;;;;;5.11;100.00;62524.38;5081321;28;20229;-76
2023/12/12 02:22:23;;;;;;;17.95;12.23;;;;;;;5.10;100.00;62520.81;5084949;28;20204;-76
2023/12/12 02:24:50;;;;;;;24.65;12.95;;;;;;;4.92;100.00;62504.81;5081819;28;20221;-76
2023/12/12 02:27:18;;;;;;;20.25;12.07;;;;;;;4.64;100.00;62476.50;5075555;28;20216;-75
2023/12/12 02:29:45;;;;;;;19.55;11.20;;;;;;;4.59;100.00;62468.81;5063662;28;20427;-77
2023/12/12 02:32:12;;;;;;;15.88;10.93;;;;;;;4.72;100.00;62481.69;5064735;28;20232;-76
2023/12/12 02:34:39;;;;;;;12.70;9.95;;;;;;;4.71;100.00;62483.69;5083296;28;20216;-76
2023/12/12 02:37:05;;;;;;;16.65;11.43;;;;;;;4.68;100.00;62483.13;5069261;28;20216;-77
2023/12/12 02:39:34;;;;;;;16.88;10.75;;;;;;;4.74;100.00;62486.78;5071263;28;20418;-77
2023/12/12 02:42:00;;;;;;;18.90;10.20;;;;;;;4.82;100.00;62493.97;5069036;28;20213;-76
2023/12/12 02:44:27;;;;;;;15.85;10.95;;;;;;;4.72;100.00;62479.16;5069761;28;20334;-77
2023/12/12 02:46:54;;;;;;;18.70;11.40;;;;;;;4.58;100.00;62469.81;5067057;28;20274;-76
2023/12/12 02:49:22;;;;;;;18.55;12.18;;;;;;;4.73;100.00;62482.72;5081268;28;20224;-77
2023/12/12 02:51:49;;;;;;;20.38;12.85;;;;;;;4.73;100.00;62480.72;5078561;28;20213;-78
2023/12/12 02:54:15;;;;;;;22.20;11.35;;;;;;;4.59;100.00;62466.31;5066632;28;20243;-76
2023/12/12 02:56:44;;;;;;;16.90;12.57;;;;;;;4.68;100.00;62480.09;5068226;28;20216;-76
2023/12/12 02:59:10;;;;;;;20.02;12.27;;;;;;;4.51;100.00;62468.16;5069485;28;20398;-77
2023/12/12 03:01:38;;;;;;;18.88;13.40;;;;;;;4.56;100.00;62465.75;5067700;28;20263;-77
2023/12/12 03:04:05;;;;;;;18.15;11.45;;;;;;;4.63;100.00;62475.47;5066905;28;20221;-77
2023/12/12 03:06:32;;;;;;;13.63;10.05;;;;;;;4.49;100.00;62458.53;5078738;28;20202;-77
2023/12/12 03:08:58;;;;;;;20.38;10.43;;;;;;;4.43;100.00;62454.88;5087035;28;20571;-76
2023/12/12 03:11:25;;;;;;;20.10;12.80;;;;;;;4.05;100.00;62415.25;5068612;28;20201;-77
2023/12/12 03:13:54;;;;;;;20.80;12.68;;;;;;;4.18;100.00;62431.66;5066944;28;20243;-77
2023/12/12 03:16:21;;;;;;;22.50;13.52;;;;;;;4.19;100.00;62425.16;5069841;28;20220;-76
2023/12/12 03:18:47;;;;;;;21.67;13.38;;;;;;;4.12;100.00;62420.47;5075402;28;20225;-78
2023/12/12 03:21:14;;;;;;;20.65;12.30;;;;;;;4.25;100.00;62430.78;5066710;28;20209;-77
2023/12/12 03:23:41;;;;;;;17.88;9.50;;;;;;;4.31;100.00;62439.50;5069313;28;20545;-77
2023/12/12 03:26:11;;;;;;;13.88;9.45;;;;;;;4.14;100.00;62422.50;5086810;28;20386;-77
2023/12/12 03:28:38;;;;;;;11.85;9.02;;;;;;;4.17;100.00;62422.56;5077105;28;20229;-77
2023/12/12 03:31:08;;;;;;;15.32;9.45;;;;;;;4.20;100.00;62430.69;5082368;28;20201;-76
2023/12/12 03:33:35;;;;;;;17.00;10.45;;;;;;;4.24;100.00;62434.81;5073175;28;20228;-77
2023/12/12 03:36:01;;;;;;;18.67;12.07;;;;;;;4.19;100.00;62430.19;5086691;28;20215;-78
2023/12/12 03:38:28;;;;;;;18.65;11.38;;;;;;;4.14;100.00;62422.50;5068591;28;20221;-78
2023/12/12 03:40:55;;;;;;;16.02;10.60;;;;;;;4.07;100.00;62415.31;5067235;28;20198;-77
2023/12/12 03:43:22;;;;;;;19.30;10.95;;;;;;;4.19;100.00;62427.66;5069590;28;20370;-77
2023/12/12 03:45:49;;;;;;;18.77;11.73;;;;;;;4.25;100.00;62433.84;5067651;28;20209;-77
2023/12/12 03:48:17;;;;;;;18.17;11.23;;;;;;;4.08;100.00;62421.38;5081187;28;20200;-77
2023/12/12 03:50:44;;;;;;;18.23;10.90;;;;;;;4.11;100.00;62419.44;5067511;28;20457;-77
2023/12/12 03:53:11;;;;;;;18.27;11.88;;;;;;;4.11;100.00;62421.94;5085580;28;20228;-76
2023/12/12 03:55:38;;;;;;;15.60;10.95;;;;;;;4.24;100.00;62434.81;5078290;28;20223;-77
2023/12/12 03:58:05;;;;;;;22.83;9.93;;;;;;;4.37;100.00;62443.66;5065775;28;20386;-77
2023/12/12 04:00:32;;;;;;;13.73;9.27;;;;;;;4.37;100.00;62445.66;5074744;28;20224;-76
2023/12/12 04:02:59;;;;;;;15.10;9.38;;;;;;;4.28;100.00;62433.91;5087936;28;20263;-77
2023/12/12 04:05:27;;;;;;;13.00;8.30;;;;;;;4.19;100.00;62430.19;5077618;28;20534;-76
2023/12/12 04:07:54;;;;;;;15.70;9.88;;;;;;;4.20;100.00;62433.72;5085543;28;20259;-78
2023/12/12 04:10:21;;;;;;;19.90;10.68;;;;;;;4.14;100.00;62424.53;5068206;28;20228;-77
2023/12/12 04:12:48;;;;;;;20.17;11.15;;;;;;;4.14;100.00;62422.50;5065602;28;20229;-76
2023/12/12 04:15:15;;;;;;;21.23;10.50;;;;;;;4.08;100.00;62415.81;5078839;28;20618;-78
2023/12/12 04:17:42;;;;;;;21.10;12.65;;;;;;;4.16;100.00;62424.56;5083651;28;20439;-77
2023/12/12 04:20:10;;;;;;;18.17;11.23;;;;;;;4.16;100.00;62426.59;5085133;28;20256;-77
2023/12/12 04:22:38;;;;;;;15.20;10.35;;;;;;;4.20;100.00;62431.22;5066390;28;20198;-76
2023/12/12 04:25:07;;;;;;;13.60;9.77;;;;;;;4.08;100.00;62418.88;5065620;28;20225;-76
2023/12/12 04:27:34;;;;;;;11.90;8.90;;;;;;;4.15;100.00;62423.56;5065410;28;20201;-77
2023/12/12 04:30:01;;;;;;;18.60;10.80;;;;;;;4.23;100.00;62431.78;5075419;28;20232;-77
2023/12/12 04:32:28;;;;;;;13.52;9.45;;;;;;;4.23;100.00;62434.28;5073092;28;20200;-77
2023/12/12 04:34:55;;;;;;;15.40;9.88;;;;;;;4.24;100.00;62432.28;5067476;28;20233;-77
2023/12/12 04:37:21;;;;;;;14.02;9.68;;;;;;;4.29;100.00;62437.97;5065713;28;20201;-76
2023/12/12 04:39:50;;;;;;;17.00;9.45;;;;;;;4.37;100.00;62451.22;5065795;28;20221;-77
2023/12/12 04:42:17;;;;;;;14.18;8.50;;;;;;;4.52;100.00;62461.13;5065755;28;20197;-76
2023/12/12 04:44:43;;;;;;;15.35;9.68;;;;;;;4.52;100.00;62461.13;5066048;28;20223;-77
2023/12/12 04:47:13;;;;;;;17.45;10.48;;;;;;;4.71;100.00;62483.19;5065100;28;20319;-77
2023/12/12 04:49:39;;;;;;;19.92;13.32;;;;;;;4.76;100.00;62485.31;5065319;28;20229;-77
2023/12/12 04:52:07;;;;;;;17.20;11.10;;;;;;;4.74;100.00;62483.75;5066011;28;20220;-76
2023/12/12 04:54:33;;;;;;;25.13;12.63;;;;;;;4.77;100.00;62489.34;5064804;28;20521;-77
2023/12/12 04:57:02;;;;;;;18.38;10.07;;;;;;;4.83;100.00;62489.97;5065535;28;20280;-77
2023/12/12 04:59:29;;;;;;;14.93;10.27;;;;;;;4.87;100.00;62494.59;5076665;28;20221;-77
2023/12/12 05:01:56;;;;;;;17.25;11.90;;;;;;;4.78;100.00;62485.34;5064963;28;20357;-77
2023/12/12 05:04:23;;;;;;;16.60;10.73;;;;;;;4.72;100.00;62482.22;5077911;28;20239;-77
2023/12/12 05:06:50;;;;;;;16.35;9.95;;;;;;;4.82;100.00;62486.41;5080710;28;20203;-77
2023/12/12 05:09:18;;;;;;;23.17;11.00;;;;;;;4.71;100.00;62485.72;5070933;28;20232;-76
2023/12/12 05:11:44;;;;;;;23.23;10.52;;;;;;;4.76;100.00;62483.28;5083417;28;20596;-77
2023/12/12 05:14:14;;;;;;;19.27;11.45;;;;;;;4.82;100.00;62494.50;5104927;28;20239;-76
2023/12/12 05:16:41;;;;;;;20.33;11.73;;;;;;;4.94;100.00;62508.88;5105264;28;20207;-77
2023/12/12 05:19:07;;;;;;;17.98;11.35;;;;;;;4.96;100.00;62503.34;5079559;28;20224;-77
2023/12/12 05:21:35;;;;;;;19.25;11.38;;;;;;;5.05;100.00;62513.16;5081940;28;20188;-77
2023/12/12 05:24:02;;;;;;;13.40;10.18;;;;;;;5.09;100.00;62519.78;5064458;28;20247;-77
2023/12/12 05:26:29;;;;;;;15.10;8.95;;;;;;;4.95;100.00;62502.34;5097568;28;20200;-76
2023/12/12 05:28:55;;;;;;;13.80;8.95;;;;;;;4.90;100.00;62505.25;5064706;28;20229;-77
2023/12/12 05:31:24;;;;;;;12.90;8.50;;;;;;;4.99;100.00;62508.97;5064044;28;20212;-76
2023/12/12 05:33:51;;;;;;;15.95;8.82;;;;;;;5.09;100.00;62527.34;5066113;28;20229;-75
2023/12/12 05:36:18;;;;;;;13.65;8.13;;;;;;;4.94;100.00;62508.88;5064682;28;20203;-77
2023/12/12 05:38:45;;;;;;;8.15;6.43;;;;;;;5.03;100.00;62516.13;5066862;28;20225;-75
2023/12/12 05:41:12;;;;;;;13.00;7.35;;;;;;;5.09;100.00;62522.31;5072168;28;20201;-76
2023/12/12 05:43:39;;;;;;;7.68;6.18;;;;;;;5.09;100.00;62526.84;5076041;28;20244;-76
2023/12/12 05:46:06;;;;;;;12.65;7.45;;;;;;;5.16;100.00;62526.50;5064826;28;20463;-76
2023/12/12 05:48:34;;;;;;;11.57;7.20;;;;;;;5.25;100.00;62535.75;5070192;28;20434;-75
2023/12/12 05:51:01;;;;;;;14.75;7.60;;;;;;;5.28;100.00;62538.84;5084831;28;20399;-75
2023/12/12 05:53:28;;;;;;;12.55;9.00;;;;;;;5.35;100.00;62544.03;5072383;28;20236;-77
2023/12/12 05:55:55;;;;;;;10.23;7.07;;;;;;;5.44;100.00;62555.84;5085060;28;20200;-75
2023/12/12 05:58:22;;;;;;;11.68;7.75;;;;;;;5.52;100.00;62566.59;5075838;28;20216;-75
2023/12/12 06:00:51;;;;;;;12.02;8.18;;;;;;;5.38;100.00;62549.16;5064440;28;20204;-76
2023/12/12 06:03:19;;;;;;;15.07;8.52;;;;;;;5.45;100.00;62556.84;5065418;28;20232;-77
2023/12/12 06:05:47;;;;;;;16.42;9.35;;;;;;;5.40;100.00;62554.22;5067202;28;20203;-75
2023/12/12 06:08:14;;;;;;;15.55;9.10;;;;;;;5.50;100.00;62564.56;5098835;28;20207;-76
2023/12/12 06:10:41;;;;;;;20.02;9.82;;;;;;;5.59;100.00;62575.84;5088695;28;20215;-76
2023/12/12 06:13:09;;;;;;;15.98;8.40;;;;;;;5.61;100.00;62575.88;5084798;28;20489;-76
2023/12/12 06:15:36;;;;;;;13.32;8.45;;;;;;;5.71;100.00;62586.16;5089866;28;20221;-76
2023/12/12 06:18:03;;;;;;;14.02;8.88;;;;;;;5.82;100.00;62594.47;5089897;28;20239;-76
2023/12/12 06:20:32;;;;;;;18.25;10.85;;;;;;;5.85;100.00;62600.63;5081577;28;20235;-75
2023/12/12 06:23:00;;;;;;;18.95;10.82;;;;;;;5.93;100.00;62607.84;5086146;28;20219;-75
2023/12/12 06:25:27;;;;;;;19.40;11.23;;;;;;;5.94;100.00;62606.84;5078665;28;20227;-76
2023/12/12 06:27:54;;;;;;;25.73;13.40;;;;;;;5.97;100.00;62609.94;5079979;28;20219;-76
2023/12/12 06:30:21;;;;;;;22.30;11.43;;;;;;;6.03;100.00;62618.66;5085221;28;20212;-76
2023/12/12 06:32:49;;;;;;;15.55;10.05;;;;;;;6.14;100.00;62627.47;5083004;28;20204;-76
2023/12/12 06:35:16;;;;;;;12.80;8.27;;;;;;;5.84;100.00;62596.56;5081157;28;20243;-76
2023/12/12 06:37:43;;;;;;;11.13;7.78;;;;;;;5.61;100.00;62575.88;5085992;28;20196;-75
2023/12/12 06:40:13;;;;;;;12.52;7.82;;;;;;;5.69;100.00;62581.56;5078564;28;20225;-76
2023/12/12 06:42:40;;;;;;;16.75;8.48;;;;;;;5.87;100.00;62599.63;5084565;28;20211;-76
2023/12/12 06:45:10;;;;;;;10.30;7.47;;;;;;;5.89;100.00;62604.22;5083223;28;20447;-75
2023/12/12 06:47:37;;;;;;;10.02;5.88;;;;;;;5.91;100.00;62605.78;5085978;28;20196;-76
2023/12/12 06:50:04;;;;;;;9.80;6.82;;;;;;;5.96;100.00;62608.41;5080684;28;20220;-75
2023/12/12 06:52:31;;;;;;;10.00;7.28;;;;;;;6.00;100.00;62618.09;5076878;28;20255;-78
2023/12/12 06:54:58;;;;;;;11.05;7.25;;;;;;;6.08;100.00;62623.81;5086188;28;20596;-77
2023/12/12 06:57:26;;;;;;;9.20;7.30;;;;;;;6.13;100.00;62623.91;5086569;28;20199;-75
2023/12/12 06:59:54;;;;;;;15.50;8.75;;;;;;;6.08;100.00;62623.81;5079831;28;20224;-76
2023/12/12 07:02:21;;;;;;;11.23;8.50;;;;;;;6.09;100.00;62622.31;5084644;28;20453;-77
2023/12/12 07:04:48;;;;;;;17.60;10.93;;;;;;;6.06;100.00;62621.75;5084051;28;20281;-76
2023/12/12 07:07:15;;;;;;;14.77;9.80;;;;;;;6.22;100.00;62638.25;5083661;28;20231;-76
2023/12/12 07:09:42;;;;;;;17.48;9.55;;;;;;;6.48;100.00;62662.53;5083904;28;20250;-76
2023/12/12 07:12:09;;;;;;;18.95;10.85;;;;;;;6.58;100.00;62672.31;5087685;28;20200;-76
2023/12/12 07:14:38;;;;;;;17.35;10.75;;;;;;;6.72;100.00;62689.28;5085676;28;20225;-77
2023/12/12 07:17:05;;;;;;;19.08;10.20;;;;;;;6.91;100.00;62706.88;5082455;28;20196;-77
2023/12/12 07:19:32;;;;;;;18.08;10.93;;;;;;;7.10;100.00;62728.47;5083597;28;20224;-77
2023/12/12 07:21:59;;;;;;;15.18;9.57;;;;;;;7.31;100.00;62749.63;5079860;28;20264;-77
2023/12/12 07:24:26;;;;;;;16.35;10.10;;;;;;;7.20;100.00;62741.31;5077768;28;20229;-76
2023/12/12 07:26:52;;;;;;;17.58;10.43;;;;;;;7.28;99.33;62746.53;5085207;28;20205;-78
2023/12/12 07:29:20;;;;;;;16.38;9.90;;;;;;;7.31;98.76;62747.63;5085124;28;20227;-78
2023/12/12 07:31:48;;;;;;;21.40;11.15;;;;;;;7.34;99.54;62752.72;5079242;28;20225;-77
2023/12/12 07:34:15;;;;;;;19.23;11.07;;;;;;;7.35;99.59;62756.31;5076526;28;20239;-77
2023/12/12 07:36:42;;;;;;;15.52;10.75;;;;;;;7.39;99.90;62755.88;5082469;28;20351;-77
2023/12/12 07:39:09;;;;;;;17.92;10.70;;;;;;;7.35;99.49;62751.75;5081267;28;20318;-77
2023/12/12 07:41:36;;;;;;;16.60;10.70;;;;;;;7.39;99.76;62763.47;5079086;28;20200;-77
2023/12/12 07:44:04;;;;;;;16.95;10.68;;;;;;;7.37;99.79;62756.34;5070317;28;20240;-76
2023/12/12 07:46:35;;;;;;;20.55;11.00;;;;;;;7.35;100.00;62748.69;5073621;28;20197;-76
2023/12/12 07:49:04;;;;;;;20.58;11.13;;;;;;;7.42;100.00;62758.97;5083034;28;20468;-76
2023/12/12 07:51:31;;;;;;;20.58;11.65;;;;;;;7.55;100.00;62772.38;5073299;28;20201;-78
2023/12/12 07:53:58;;;;;;;22.48;13.63;;;;;;;7.42;100.00;62753.41;5069571;28;20235;-77
2023/12/12 07:56:25;;;;;;;18.48;12.02;;;;;;;7.52;100.00;62768.78;5075076;28;20197;-75
2023/12/12 07:58:52;;;;;;;18.35;11.45;;;;;;;7.58;100.00;62778.00;5070391;28;20229;-77
2023/12/12 08:01:19;;;;;;;18.30;10.50;;;;;;;7.63;98.81;62782.66;5067933;28;20226;-76
2023/12/12 08:03:46;;;;;;;20.77;11.02;;;;;;;7.67;99.49;62787.31;5072411;28;20253;-77
2023/12/12 08:06:14;;;;;;;27.33;12.25;;;;;;;7.65;99.31;62787.25;5085290;28;20207;-76
2023/12/12 08:08:41;;;;;;;21.85;11.90;;;;;;;7.92;99.24;62813.09;5080453;28;20257;-77
2023/12/12 08:11:13;;;;;;;18.40;12.48;;;;;;;8.15;97.30;62836.34;5073597;28;20205;-77
2023/12/12 08:13:40;;;;;;;18.67;11.80;;;;;;;8.13;94.90;62827.19;5065699;28;20544;-77
2023/12/12 08:16:08;;;;;;;23.63;11.85;;;;;;;8.03;95.19;62821.41;5066722;28;20236;-77
2023/12/12 08:18:37;;;;;;;22.45;11.73;;;;;;;8.19;95.44;62840.47;5075923;28;20442;-76
2023/12/12 08:21:06;;;;;;;19.27;12.75;;;;;;;8.17;96.50;62836.41;5065079;28;20205;-77
2023/12/12 08:23:36;;;;;;;18.40;12.15;;;;;;;8.11;96.90;62832.72;5082461;28;20498;-77
2023/12/12 08:26:05;;;;;;;22.73;11.82;;;;;;;8.34;97.66;62858.00;5065647;28;20276;-77
2023/12/12 08:28:31;;;;;;;24.52;12.63;;;;;;;8.26;97.35;62847.72;5064807;28;20224;-77
2023/12/12 08:30:59;;;;;;;17.58;12.05;;;;;;;8.51;96.23;62873.53;5072071;28;20425;-77
2023/12/12 08:33:26;;;;;;;16.13;11.38;;;;;;;8.44;96.47;62866.31;5064194;28;20201;-77
2023/12/12 08:35:52;;;;;;;18.13;11.50;;;;;;;8.65;96.21;62888.00;5064778;28;20228;-77
2023/12/12 08:38:19;;;;;;;17.35;12.00;;;;;;;8.73;92.79;62890.69;5068337;28;20240;-76
2023/12/12 08:40:48;;;;;;;18.15;11.48;;;;;;;8.83;93.19;62906.63;5066417;28;20205;-79
2023/12/12 08:43:15;;;;;;;21.60;12.75;;;;;;;8.92;91.85;62915.41;5076087;28;20563;-78
2023/12/12 08:45:43;;;;;;;18.05;11.10;;;;;;;9.03;92.30;62927.28;5070726;28;20506;-76
2023/12/12 08:48:10;;;;;;;17.23;11.40;;;;;;;9.18;91.33;62942.78;5073359;28;20231;-77
2023/12/12 08:50:37;;;;;;;23.50;14.15;;;;;;;9.36;88.87;62955.78;5070227;28;20228;-77
2023/12/12 08:53:04;;;;;;;27.13;12.55;;;;;;;9.45;87.04;62967.66;5066819;28;20276;-76
2023/12/12 08:55:35;;;;;;;20.35;10.88;;;;;;;9.51;85.32;62973.84;5075124;28;20362;-79
2023/12/12 08:58:04;;;;;;;23.00;9.98;;;;;;;9.51;84.48;62975.88;5069592;28;20209;-77
2023/12/12 09:00:32;;;;;;;16.63;9.80;;;;;;;9.38;84.69;62967.50;5069137;28;20229;-77
2023/12/12 09:02:59;;;;;;;17.58;11.52;;;;;;;9.59;84.31;62982.13;5078401;28;20204;-78
2023/12/12 09:05:26;;;;;;;15.35;10.07;;;;;;;9.79;81.37;63007.88;5075946;28;20247;-77
2023/12/12 09:07:53;;;;;;;20.58;10.77;;;;;;;9.82;80.85;63005.91;5063987;28;20276;-76
2023/12/12 09:10:20;;;;;;;28.25;10.75;;;;;;;9.85;80.98;63011.56;5070474;28;20533;-78
2023/12/12 09:12:47;;;;;;;19.30;11.10;;;;;;;9.68;81.36;62998.53;5078265;28;20201;-79
2023/12/12 09:15:17;;;;;;;19.85;10.68;;;;;;;9.23;84.20;62945.41;5069311;28;20239;-77
2023/12/12 09:17:43;;;;;;;19.08;10.88;;;;;;;9.26;84.42;62945.97;5070916;28;20200;-78
2023/12/12 09:20:12;;;;;;;21.73;10.82;;;;;;;9.13;84.81;62935.06;5083473;28;20550;-77
2023/12/12 09:22:39;;;;;;;22.70;11.05;;;;;;;9.01;86.43;62924.69;5070442;28;20242;-78
2023/12/12 09:25:06;;;;;;;20.67;11.25;;;;;;;9.29;85.43;62953.63;5068415;28;20221;-80
2023/12/12 09:27:33;;;;;;;20.67;9.95;;;;;;;9.59;84.52;62979.06;5074543;28;20226;-78
2023/12/12 09:30:00;;;;;;;14.75;10.40;;;;;;;9.87;82.83;63013.63;5074957;28;20231;-79
2023/12/12 09:32:28;;;;;;;18.52;10.52;;;;;;;10.07;80.68;63036.34;5074801;28;20466;-77
2023/12/12 09:34:56;;;;;;;16.08;10.02;;;;;;;10.21;78.39;63048.28;5065114;28;20309;-76
2023/12/12 09:37:23;;;;;;;20.85;11.13;;;;;;;9.92;79.21;63018.28;5068459;28;20204;-78
2023/12/12 09:39:50;;;;;;;16.85;10.27;;;;;;;9.86;79.91;63012.59;5076664;28;20231;-77
2023/12/12 09:42:18;;;;;;;19.15;9.80;;;;;;;9.76;79.82;63002.25;5071314;28;20203;-77
2023/12/12 09:44:47;;;;;;;15.23;9.75;;;;;;;9.87;81.66;63011.06;5085891;28;20224;-77
2023/12/12 09:47:14;;;;;;;17.75;11.02;;;;;;;10.06;80.16;63030.72;5081854;28;20196;-77
2023/12/12 09:49:43;;;;;;;20.67;11.27;;;;;;;10.20;80.09;63050.31;5092697;28;20278;-77
2023/12/12 09:52:09;;;;;;;18.52;11.95;;;;;;;10.35;80.22;63060.25;5077388;28;20213;-77
2023/12/12 09:54:36;;;;;;;22.38;12.73;;;;;;;10.51;79.38;63079.31;5081253;28;20291;-77
2023/12/12 09:57:16;;;;;;;19.83;10.55;;;;;;;10.59;78.71;63085.06;5080960;28;20204;-76
2023/12/12 09:59:43;;;;;;;15.80;9.40;;;;;;;10.81;77.50;63110.38;5084959;28;20386;-77
2023/12/12 10:02:10;;;;;;;19.70;10.52;;;;;;;10.98;75.93;63130.00;5085149;28;20493;-77
2023/12/12 10:04:38;;;;;;;19.23;10.15;;;;;;;11.08;74.92;63137.84;5082333;28;20217;-77
2023/12/12 10:07:07;;;;;;;16.80;8.93;;;;;;;11.29;73.27;63160.09;5082191;28;20216;-77
2023/12/12 10:09:34;;;;;;;13.45;8.48;;;;;;;11.56;72.18;63190.09;5078302;28;20780;-75
2023/12/12 10:12:01;;;;;;;14.48;7.38;;;;;;;11.75;71.17;63209.28;5082858;28;20204;-77
2023/12/12 10:14:37;;;;;;;16.50;8.80;;;;;;;11.53;69.76;63184.94;5082137;28;20216;-78
2023/12/12 10:17:05;;;;;;;13.70;7.63;;;;;;;11.60;69.75;63192.19;5090270;28;20333;-78
2023/12/12 10:19:32;;;;;;;15.75;8.32;;;;;;;11.66;69.79;63197.91;5086267;28;20476;-77
2023/12/12 10:22:02;;;;;;;19.27;8.18;;;;;;;11.72;70.11;63203.63;5087924;28;20207;-77
2023/12/12 10:24:30;;;;;;;11.15;6.57;;;;;;;11.37;69.00;63170.41;5084177;28;20331;-77
2023/12/12 10:26:58;;;;;;;12.00;5.10;;;;;;;11.03;71.07;63133.16;5088874;28;20189;-78
2023/12/12 10:29:25;;;;;;;2.08;1.63;;;;;;;11.25;66.59;63157.97;5084603;28;20236;-77
2023/12/12 10:31:53;;;;;;;1.95;1.55;;;;;;;11.39;65.93;63167.88;5088275;28;20622;-79
2023/12/12 10:34:20;;;;;;;1.83;1.73;;;;;;;11.09;68.94;63141.41;5083718;28;20284;-78
2023/12/12 10:36:48;;;;;;;3.88;1.60;;;;;;;10.97;69.66;63128.97;5089199;28;20231;-79
2023/12/12 10:39:16;;;;;;;4.93;2.17;;;;;;;11.28;67.54;63161.59;5089167;28;20212;-78
2023/12/12 10:41:51;;;;;;;1.85;1.75;;;;;;;11.33;69.16;63164.25;5083754;28;20212;-80
2023/12/12 10:44:19;;;;;;;2.35;2.00;;;;;;;11.58;66.72;63190.13;5083545;28;20216;-77
2023/12/12 10:46:47;;;;;;;2.13;1.90;;;;;;;11.63;64.96;63195.31;5085059;28;20250;-78
2023/12/12 10:49:14;;;;;;;3.80;2.35;;;;;;;11.60;64.91;63186.56;5090816;28;20220;-79
2023/12/12 10:51:41;;;;;;;5.47;1.83;;;;;;;11.78;64.24;63210.34;5087333;28;20304;-79
2023/12/12 10:54:08;;;;;;;1.90;1.80;;;;;;;11.69;65.18;63211.22;5082675;28;20235;-79
2023/12/12 10:56:35;;;;;;;2.05;1.88;;;;;;;11.53;65.24;63184.94;5082242;28;20225;-77
2023/12/12 10:59:04;;;;;;;3.80;1.98;;;;;;;10.95;68.97;63127.44;5086630;28;20394;-77
2023/12/12 11:01:31;;;;;;;3.30;2.00;;;;;;;10.60;72.67;63091.19;5084393;28;20208;-78
2023/12/12 11:03:58;;;;;;;3.55;1.85;;;;;;;10.43;74.96;63071.06;5086407;28;20239;-77
2023/12/12 11:06:25;;;;;;;4.07;2.55;;;;;;;10.41;76.73;63069.50;5075564;28;20535;-77
2023/12/12 11:08:53;;;;;;;3.75;3.33;;;;;;;10.56;75.94;63081.44;5077662;28;20251;-77
2023/12/12 11:11:20;;;;;;;4.72;3.67;;;;;;;10.62;75.15;63095.28;5084214;28;20209;-77
2023/12/12 11:13:47;;;;;;;8.20;4.38;;;;;;;10.63;75.38;63089.19;5080563;28;20228;-77
2023/12/12 11:16:15;;;;;;;9.27;3.47;;;;;;;10.78;75.04;63111.84;5083607;28;20254;-78
2023/12/12 11:18:43;;;;;;;5.47;3.30;;;;;;;10.48;76.00;63073.69;5077310;28;20241;-78
2023/12/12 11:21:09;;;;;;;3.55;2.45;;;;;;;10.19;78.65;63049.28;5067358;28;20201;-78
2023/12/12 11:23:55;;;;;;;5.80;3.30;;;;;;;10.10;79.24;63036.91;5069175;28;20552;-77
2023/12/12 11:26:24;;;;;;;3.53;3.00;;;;;;;10.03;80.95;63032.72;5070281;28;20251;-79